^^
Your Local Weather - Clay, NY Station Historical Data
Daily Summary for April 18, 2017 Units:  English    Metric   Both
« Previous Day
Next Day »
Daily Weekly Monthly Yearly Custom
  High: Low: Average:
Temperature: 56.9 °F 30.6 °F 43.8 °F
Dew Point: 35.7 °F 25.9 °F 30 °F
Humidity: 86% 34% 61%
Wind Speed: 3.0mph 0.0mph 1.2mph
Wind Gust: 6.0mph - -
Wind- - WSW
Pressure: 30.42 in 30.21 in -
Precipitation: 0.00 in    
Historical Graphs
 
 
Tabular Data for April 18, 2017
Time Temperature Dew Point Pressure Wind Wind Speed Wind Gust Humidity Rainfall Rate (Hourly) solar
00:04 39.1 °F 34.1 °F 30.21 in Calm   3.0 mph 82% 0.00 in 0 W/m2
00:10 39.0 °F 34.3 °F 30.21 in NW 1.0 mph 1.0 mph 83% 0.00 in 0 W/m2
00:16 39.0 °F 34.3 °F 30.21 in NNW 3.0 mph 6.0 mph 83% 0.00 in 0 W/m2
00:22 38.9 °F 33.9 °F 30.21 in NNW 2.0 mph 3.0 mph 82% 0.00 in 0 W/m2
00:28 38.8 °F 33.5 °F 30.23 in NNW 2.0 mph 4.0 mph 81% 0.00 in 0 W/m2
00:34 38.6 °F 33.3 °F 30.23 in NNW 1.0 mph 2.0 mph 81% 0.00 in 0 W/m2
00:40 38.4 °F 33.1 °F 30.23 in NNW 1.0 mph 2.0 mph 81% 0.00 in 0 W/m2
00:46 38.2 °F 32.6 °F 30.23 in North 2.0 mph 5.0 mph 80% 0.00 in 0 W/m2
00:52 38.1 °F 32.2 °F 30.23 in NNW 2.0 mph 3.0 mph 79% 0.00 in 0 W/m2
00:58 38.0 °F 32.1 °F 30.23 in NW 2.0 mph 3.0 mph 79% 0.00 in 0 W/m2
01:04 37.9 °F 31.7 °F 30.24 in North 2.0 mph 3.0 mph 78% 0.00 in 0 W/m2
01:10 37.7 °F 31.5 °F 30.24 in NNW 2.0 mph 3.0 mph 78% 0.00 in 0 W/m2
01:16 37.6 °F 31.0 °F 30.24 in NW 2.0 mph 3.0 mph 77% 0.00 in 0 W/m2
01:22 37.4 °F 30.8 °F 30.24 in North 2.0 mph 4.0 mph 77% 0.00 in 0 W/m2
01:28 37.3 °F 30.7 °F 30.24 in NNW 2.0 mph 4.0 mph 77% 0.00 in 0 W/m2
01:34 37.1 °F 30.6 °F 30.24 in NNW 3.0 mph 3.0 mph 77% 0.00 in 0 W/m2
01:40 37.0 °F 30.1 °F 30.24 in NNW 3.0 mph 3.0 mph 76% 0.00 in 0 W/m2
01:46 36.8 °F 29.9 °F 30.25 in NNW 2.0 mph 3.0 mph 76% 0.00 in 0 W/m2
01:52 36.6 °F 29.7 °F 30.25 in North 2.0 mph 2.0 mph 76% 0.00 in 0 W/m2
01:58 36.4 °F 29.9 °F 30.26 in NNW 1.0 mph 4.0 mph 77% 0.00 in 0 W/m2
02:04 36.2 °F 29.7 °F 30.26 in NNW 1.0 mph 3.0 mph 77% 0.00 in 0 W/m2
02:08 36.1 °F 29.6 °F 30.26 in North 2.0 mph 4.0 mph 77% 0.00 in 0 W/m2
02:14 36.2 °F 29.4 °F 30.26 in NW 2.0 mph 5.0 mph 76% 0.00 in 0 W/m2
02:20 36.1 °F 29.6 °F 30.26 in NNW 2.0 mph 3.0 mph 77% 0.00 in 0 W/m2
02:26 36.0 °F 29.5 °F 30.26 in NNW 1.0 mph 3.0 mph 77% 0.00 in 0 W/m2
02:32 35.9 °F 29.4 °F 30.26 in NNW 1.0 mph 1.0 mph 77% 0.00 in 0 W/m2
02:38 35.7 °F 29.2 °F 30.26 in Calm   1.0 mph 77% 0.00 in 0 W/m2
02:44 35.6 °F 29.1 °F 30.27 in NNW 1.0 mph 3.0 mph 77% 0.00 in 0 W/m2
02:50 35.4 °F 28.9 °F 30.27 in Calm   4.0 mph 77% 0.00 in 0 W/m2
02:56 35.2 °F 28.7 °F 30.27 in Calm   4.0 mph 77% 0.00 in 0 W/m2
03:02 35.1 °F 28.9 °F 30.27 in Calm   1.0 mph 78% 0.00 in 0 W/m2
03:08 35.1 °F 28.9 °F 30.27 in Calm   1.0 mph 78% 0.00 in 0 W/m2
03:14 35.2 °F 29.0 °F 30.28 in Calm     78% 0.00 in 0 W/m2
03:20 35.2 °F 29.0 °F 30.29 in NNW 1.0 mph 1.0 mph 78% 0.00 in 0 W/m2
03:26 35.4 °F 28.9 °F 30.29 in NW 1.0 mph 3.0 mph 77% 0.00 in 0 W/m2
03:32 35.4 °F 28.6 °F 30.29 in NW 2.0 mph 2.0 mph 76% 0.00 in 0 W/m2
03:38 35.4 °F 28.6 °F 30.29 in NNW 2.0 mph 2.0 mph 76% 0.00 in 0 W/m2
03:44 35.3 °F 28.2 °F 30.29 in NNW 1.0 mph 2.0 mph 75% 0.00 in 0 W/m2
03:50 35.2 °F 28.1 °F 30.30 in NNW 1.0 mph 3.0 mph 75% 0.00 in 0 W/m2
03:56 35.0 °F 27.9 °F 30.31 in NNW 1.0 mph 3.0 mph 75% 0.00 in 0 W/m2
04:02 34.8 °F 27.7 °F 30.31 in NNW 1.0 mph 2.0 mph 75% 0.00 in 0 W/m2
04:08 34.7 °F 27.6 °F 30.31 in Calm   2.0 mph 75% 0.00 in 0 W/m2
04:14 34.6 °F 27.5 °F 30.31 in Calm     75% 0.00 in 0 W/m2
04:20 34.4 °F 27.3 °F 30.31 in Calm     75% 0.00 in 0 W/m2
04:26 34.2 °F 27.1 °F 30.32 in Calm     75% 0.00 in 0 W/m2
04:32 34.1 °F 27.0 °F 30.33 in Calm     75% 0.00 in 0 W/m2
04:38 33.9 °F 27.1 °F 30.33 in Calm   1.0 mph 76% 0.00 in 0 W/m2
04:44 33.9 °F 27.1 °F 30.33 in Calm   1.0 mph 76% 0.00 in 0 W/m2
04:50 33.9 °F 27.1 °F 30.34 in Calm   1.0 mph 76% 0.00 in 0 W/m2
04:56 33.9 °F 27.1 °F 30.33 in NNW 1.0 mph 1.0 mph 76% 0.00 in 0 W/m2
05:02 33.9 °F 27.1 °F 30.33 in NNW 1.0 mph 1.0 mph 76% 0.00 in 0 W/m2
05:08 33.7 °F 26.9 °F 30.33 in Calm   1.0 mph 76% 0.00 in 0 W/m2
05:14 33.5 °F 26.7 °F 30.33 in Calm     76% 0.00 in 0 W/m2
05:20 33.1 °F 26.4 °F 30.33 in Calm     76% 0.00 in 0 W/m2
05:26 32.8 °F 26.1 °F 30.33 in Calm     76% 0.00 in 0 W/m2
05:32 32.4 °F 26.3 °F 30.33 in Calm     78% 0.00 in 0 W/m2
05:38 32.1 °F 26.3 °F 30.34 in Calm     79% 0.00 in 0 W/m2
05:44 31.9 °F 26.4 °F 30.34 in Calm     80% 0.00 in 0 W/m2
05:50 31.7 °F 26.2 °F 30.34 in Calm     80% 0.00 in 0 W/m2
05:56 31.5 °F 26.3 °F 30.34 in Calm     81% 0.00 in 0 W/m2
06:02 31.4 °F 26.2 °F 30.34 in Calm     81% 0.00 in 0 W/m2
06:08 31.2 °F 26.0 °F 30.34 in Calm     81% 0.00 in 0 W/m2
06:14 31.0 °F 25.9 °F 30.35 in Calm     81% 0.00 in 0 W/m2
06:20 30.9 °F 26.1 °F 30.35 in Calm     82% 0.00 in 5 W/m2
06:26 30.8 °F 26.0 °F 30.35 in Calm     82% 0.00 in 7 W/m2
06:32 30.8 °F 26.2 °F 30.35 in Calm     83% 0.00 in 11 W/m2
06:38 30.7 °F 26.1 °F 30.36 in Calm     83% 0.00 in 14 W/m2
06:46 30.6 °F 26.1 °F 30.36 in Calm     83% 0.00 in 18 W/m2
06:52 30.6 °F 26.3 °F 30.36 in Calm     84% 0.00 in 32 W/m2
06:58 30.8 °F 26.5 °F 30.37 in Calm     84% 0.00 in 49 W/m2
07:04 31.1 °F 27.1 °F 30.37 in Calm     85% 0.00 in 90 W/m2
07:10 31.9 °F 28.2 °F 30.37 in Calm     86% 0.00 in 135 W/m2
07:16 33.9 °F 29.9 °F 30.37 in Calm     85% 0.00 in 137 W/m2
07:22 34.5 °F 29.3 °F 30.37 in Calm     81% 0.00 in 144 W/m2
07:28 34.5 °F 28.3 °F 30.38 in Calm     78% 0.00 in 47 W/m2
07:34 34.5 °F 28.3 °F 30.38 in NNW 1.0 mph 1.0 mph 78% 0.00 in 51 W/m2
07:40 34.9 °F 28.1 °F 30.38 in NNW 1.0 mph 1.0 mph 76% 0.00 in 209 W/m2
07:46 35.4 °F 28.3 °F 30.39 in NNW 1.0 mph 3.0 mph 75% 0.00 in 227 W/m2
07:52 35.9 °F 28.7 °F 30.39 in NNW 1.0 mph 3.0 mph 75% 0.00 in 246 W/m2
07:58 36.2 °F 28.7 °F 30.39 in NNW 1.0 mph 3.0 mph 74% 0.00 in 258 W/m2
08:04 36.5 °F 29.0 °F 30.39 in NNW 1.0 mph 4.0 mph 74% 0.00 in 229 W/m2
08:10 36.5 °F 28.7 °F 30.40 in NNW 1.0 mph 1.0 mph 73% 0.00 in 290 W/m2
08:16 37.2 °F 29.3 °F 30.40 in Calm   3.0 mph 73% 0.00 in 279 W/m2
08:22 37.3 °F 29.1 °F 30.40 in NNW 2.0 mph 3.0 mph 72% 0.00 in 278 W/m2
08:28 37.6 °F 29.0 °F 30.40 in NNW 2.0 mph 3.0 mph 71% 0.00 in 288 W/m2
08:34 37.9 °F 28.6 °F 30.41 in NNE 2.0 mph 3.0 mph 69% 0.00 in 255 W/m2
08:40 38.2 °F 28.9 °F 30.42 in NE 2.0 mph 2.0 mph 69% 0.00 in 309 W/m2
08:46 38.7 °F 29.0 °F 30.42 in NNW 2.0 mph 4.0 mph 68% 0.00 in 327 W/m2
08:52 38.8 °F 29.1 °F 30.41 in NNW 1.0 mph 1.0 mph 68% 0.00 in 272 W/m2
08:58 39.1 °F 28.7 °F 30.41 in North 2.0 mph 4.0 mph 66% 0.00 in 260 W/m2
09:04 39.0 °F 28.6 °F 30.41 in North 3.0 mph 4.0 mph 66% 0.00 in 399 W/m2
09:10 39.5 °F 29.1 °F 30.41 in NNE 3.0 mph 3.0 mph 66% 0.00 in 392 W/m2
09:16 39.5 °F 29.1 °F 30.42 in NE 2.0 mph 3.0 mph 66% 0.00 in 508 W/m2
09:22 40.3 °F 29.8 °F 30.42 in NW 1.0 mph 3.0 mph 66% 0.00 in 508 W/m2
09:28 40.8 °F 29.9 °F 30.42 in NW 1.0 mph 3.0 mph 65% 0.00 in 550 W/m2
09:34 41.3 °F 30.4 °F 30.42 in SW 1.0 mph 4.0 mph 65% 0.00 in 568 W/m2
09:40 41.6 °F 30.3 °F 30.42 in NNW 1.0 mph 2.0 mph 64% 0.00 in 585 W/m2
09:46 41.8 °F 29.3 °F 30.42 in WSW 2.0 mph 3.0 mph 61% 0.00 in 605 W/m2
09:52 42.4 °F 31.8 °F 30.42 in WNW 2.0 mph 2.0 mph 66% 0.00 in 621 W/m2
09:58 43.2 °F 30.6 °F 30.42 in NW 2.0 mph 4.0 mph 61% 0.00 in 640 W/m2
10:04 42.7 °F 29.4 °F 30.42 in WNW 2.0 mph 2.0 mph 59% 0.00 in 659 W/m2
10:10 42.5 °F 30.4 °F 30.42 in SW 2.0 mph 2.0 mph 62% 0.00 in 675 W/m2
10:16 43.7 °F 30.3 °F 30.42 in NW 2.0 mph 2.0 mph 59% 0.00 in 687 W/m2
10:22 43.7 °F 31.1 °F 30.42 in WNW 2.0 mph 3.0 mph 61% 0.00 in 707 W/m2
10:28 43.9 °F 31.3 °F 30.42 in WNW 2.0 mph 3.0 mph 61% 0.00 in 719 W/m2
10:34 43.5 °F 30.1 °F 30.42 in WSW 2.0 mph 3.0 mph 59% 0.00 in 735 W/m2
10:40 43.5 °F 30.9 °F 30.42 in NW 1.0 mph 1.0 mph 61% 0.00 in 751 W/m2
10:46 44.7 °F 29.5 °F 30.42 in NNW 1.0 mph 4.0 mph 55% 0.00 in 765 W/m2
10:52 44.9 °F 30.6 °F 30.42 in West 2.0 mph 2.0 mph 57% 0.00 in 775 W/m2
10:58 46.0 °F 31.2 °F 30.42 in WNW 2.0 mph 3.0 mph 56% 0.00 in 788 W/m2
11:04 45.1 °F 31.6 °F 30.42 in West 2.0 mph 2.0 mph 59% 0.00 in 798 W/m2
11:10 45.1 °F 29.0 °F 30.42 in South 1.0 mph 1.0 mph 53% 0.00 in 809 W/m2
11:16 45.7 °F 30.4 °F 30.42 in WSW 1.0 mph 1.0 mph 55% 0.00 in 821 W/m2
11:22 46.5 °F 30.7 °F 30.42 in North 1.0 mph 5.0 mph 54% 0.00 in 830 W/m2
11:28 46.7 °F 30.5 °F 30.42 in WSW 2.0 mph 5.0 mph 53% 0.00 in 835 W/m2
11:34 45.3 °F 28.2 °F 30.42 in WSW 2.0 mph 5.0 mph 51% 0.00 in 846 W/m2
11:40 45.7 °F 30.4 °F 30.42 in SE 2.0 mph 5.0 mph 55% 0.00 in 853 W/m2
11:46 46.2 °F 30.9 °F 30.42 in SSE 3.0 mph 5.0 mph 55% 0.00 in 858 W/m2
11:52 46.5 °F 31.6 °F 30.42 in WSW 3.0 mph 4.0 mph 56% 0.00 in 867 W/m2
11:58 46.6 °F 29.9 °F 30.42 in SSW 2.0 mph 4.0 mph 52% 0.00 in 870 W/m2
12:04 47.2 °F 30.0 °F 30.42 in NW 2.0 mph 3.0 mph 51% 0.00 in 875 W/m2
12:10 47.7 °F 28.4 °F 30.42 in WSW 2.0 mph 2.0 mph 47% 0.00 in 879 W/m2
12:16 46.7 °F 27.5 °F 30.42 in SSE 1.0 mph 2.0 mph 47% 0.00 in 884 W/m2
12:22 48.2 °F 30.9 °F 30.41 in WSW 2.0 mph 4.0 mph 51% 0.00 in 888 W/m2
12:28 48.7 °F 33.7 °F 30.41 in NW 2.0 mph 6.0 mph 56% 0.00 in 889 W/m2
12:34 48.6 °F 30.8 °F 30.41 in SW 3.0 mph 5.0 mph 50% 0.00 in 893 W/m2
12:40 49.3 °F 31.9 °F 30.40 in West 3.0 mph 5.0 mph 51% 0.00 in 895 W/m2
12:46 48.7 °F 29.4 °F 30.40 in SW 2.0 mph 5.0 mph 47% 0.00 in 896 W/m2
12:52 49.2 °F 30.3 °F 30.40 in SW 2.0 mph 3.0 mph 48% 0.00 in 896 W/m2
12:58 49.2 °F 28.7 °F 30.40 in WSW 3.0 mph 4.0 mph 45% 0.00 in 902 W/m2
13:04 49.4 °F 29.5 °F 30.40 in West 3.0 mph 3.0 mph 46% 0.00 in 898 W/m2
13:10 49.2 °F 29.8 °F 30.40 in North 3.0 mph 5.0 mph 47% 0.00 in 898 W/m2
13:16 49.8 °F 33.8 °F 30.40 in WNW 3.0 mph 5.0 mph 54% 0.00 in 898 W/m2
13:22 49.3 °F 28.3 °F 30.40 in SW 3.0 mph 3.0 mph 44% 0.00 in 898 W/m2
13:28 49.5 °F 29.6 °F 30.40 in NNE 2.0 mph 3.0 mph 46% 0.00 in 896 W/m2
13:34 49.1 °F 29.2 °F 30.39 in NNE 2.0 mph 4.0 mph 46% 0.00 in 895 W/m2
13:40 50.6 °F 29.5 °F 30.39 in West 2.0 mph 2.0 mph 44% 0.00 in 893 W/m2
13:46 50.5 °F 33.5 °F 30.39 in West 3.0 mph 5.0 mph 52% 0.00 in 888 W/m2
13:52 51.1 °F 31.6 °F 30.39 in West 2.0 mph 2.0 mph 47% 0.00 in 886 W/m2
13:58 51.4 °F 33.9 °F 30.38 in WNW 2.0 mph 5.0 mph 51% 0.00 in 877 W/m2
14:04 51.9 °F 30.6 °F 30.38 in West 2.0 mph 4.0 mph 44% 0.00 in 875 W/m2
14:10 51.8 °F 31.1 °F 30.37 in SW 2.0 mph 2.0 mph 45% 0.00 in 872 W/m2
14:16 51.5 °F 29.7 °F 30.38 in WNW 1.0 mph 3.0 mph 43% 0.00 in 865 W/m2
14:22 52.2 °F 28.6 °F 30.38 in South 2.0 mph 4.0 mph 40% 0.00 in 860 W/m2
14:28 52.7 °F 30.2 °F 30.38 in West 2.0 mph 4.0 mph 42% 0.00 in 849 W/m2
14:34 52.8 °F 29.7 °F 30.38 in West 2.0 mph 4.0 mph 41% 0.00 in 844 W/m2
14:40 52.4 °F 32.2 °F 30.38 in NW 2.0 mph 4.0 mph 46% 0.00 in 831 W/m2
14:46 53.2 °F 28.2 °F 30.37 in West 2.0 mph 4.0 mph 38% 0.00 in 824 W/m2
14:52 52.6 °F 28.3 °F 30.37 in West 1.0 mph 2.0 mph 39% 0.00 in 817 W/m2
14:58 52.6 °F 31.8 °F 30.37 in SE 1.0 mph 4.0 mph 45% 0.00 in 807 W/m2
15:04 53.0 °F 30.5 °F 30.37 in SE 2.0 mph 5.0 mph 42% 0.00 in 795 W/m2
15:10 53.4 °F 33.1 °F 30.37 in SE 3.0 mph 3.0 mph 46% 0.00 in 784 W/m2
15:16 53.5 °F 29.7 °F 30.36 in WSW 2.0 mph 6.0 mph 40% 0.00 in 777 W/m2
15:22 54.0 °F 30.2 °F 30.36 in SW 2.0 mph 3.0 mph 40% 0.00 in 763 W/m2
15:28 53.7 °F 28.7 °F 30.36 in South 2.0 mph 3.0 mph 38% 0.00 in 749 W/m2
15:34 53.6 °F 29.2 °F 30.36 in SSW 2.0 mph 3.0 mph 39% 0.00 in 737 W/m2
15:42 55.6 °F 32.8 °F 30.36 in WNW 2.0 mph 4.0 mph 42% 0.00 in 717 W/m2
15:48 54.8 °F 29.7 °F 30.36 in WNW 2.0 mph 4.0 mph 38% 0.00 in 701 W/m2
15:54 55.5 °F 31.5 °F 30.36 in WNW 2.0 mph 4.0 mph 40% 0.00 in 686 W/m2
16:00 55.0 °F 31.7 °F 30.35 in WSW 2.0 mph 2.0 mph 41% 0.00 in 675 W/m2
16:06 54.6 °F 30.7 °F 30.35 in South 3.0 mph 3.0 mph 40% 0.00 in 657 W/m2
16:12 55.3 °F 32.0 °F 30.34 in WSW 2.0 mph 3.0 mph 41% 0.00 in 645 W/m2
16:18 56.3 °F 30.3 °F 30.34 in WSW 1.0 mph 3.0 mph 37% 0.00 in 624 W/m2
16:24 56.6 °F 31.3 °F 30.34 in WSW 2.0 mph 3.0 mph 38% 0.00 in 612 W/m2
16:30 55.6 °F 31.0 °F 30.34 in WSW 2.0 mph 3.0 mph 39% 0.00 in 599 W/m2
16:36 55.4 °F 30.2 °F 30.34 in WSW 1.0 mph 4.0 mph 38% 0.00 in 578 W/m2
16:42 55.8 °F 27.8 °F 30.34 in SSE 2.0 mph 3.0 mph 34% 0.00 in 564 W/m2
16:48 55.8 °F 28.5 °F 30.34 in SW 3.0 mph 3.0 mph 35% 0.00 in 545 W/m2
16:54 56.0 °F 28.7 °F 30.33 in WSW 3.0 mph 6.0 mph 35% 0.00 in 533 W/m2
17:00 56.6 °F 28.5 °F 30.33 in WSW 3.0 mph 3.0 mph 34% 0.00 in 512 W/m2
17:06 56.3 °F 29.0 °F 30.33 in South 2.0 mph 3.0 mph 35% 0.00 in 490 W/m2
17:12 55.7 °F 29.1 °F 30.33 in SSE 3.0 mph 3.0 mph 36% 0.00 in 471 W/m2
17:18 55.4 °F 28.9 °F 30.33 in SSE 2.0 mph 4.0 mph 36% 0.00 in 454 W/m2
17:24 56.4 °F 29.1 °F 30.33 in West 1.0 mph 2.0 mph 35% 0.00 in 434 W/m2
17:30 56.3 °F 30.3 °F 30.33 in WSW 1.0 mph 1.0 mph 37% 0.00 in 380 W/m2
17:36 56.6 °F 28.5 °F 30.33 in SW 1.0 mph 3.0 mph 34% 0.00 in 396 W/m2
17:42 56.9 °F 30.2 °F 30.33 in WSW 1.0 mph 4.0 mph 36% 0.00 in 301 W/m2
17:48 56.8 °F 30.1 °F 30.33 in WSW 2.0 mph 5.0 mph 36% 0.00 in 299 W/m2
17:54 56.6 °F 28.5 °F 30.33 in SSW 2.0 mph 3.0 mph 34% 0.00 in 229 W/m2
18:00 56.1 °F 30.8 °F 30.33 in SW 2.0 mph 2.0 mph 38% 0.00 in 192 W/m2
18:06 56.6 °F 30.6 °F 30.33 in WSW 1.0 mph 5.0 mph 37% 0.00 in 160 W/m2
18:12 56.4 °F 29.7 °F 30.33 in West 1.0 mph 2.0 mph 36% 0.00 in 160 W/m2
18:18 56.3 °F 29.7 °F 30.33 in West 1.0 mph 2.0 mph 36% 0.00 in 116 W/m2
18:24 56.3 °F 29.0 °F 30.33 in SW 2.0 mph 4.0 mph 35% 0.00 in 114 W/m2
18:30 55.9 °F 30.0 °F 30.33 in SSE 2.0 mph 2.0 mph 37% 0.00 in 113 W/m2
18:36 55.8 °F 29.2 °F 30.33 in SSE 1.0 mph 2.0 mph 36% 0.00 in 128 W/m2
18:42 55.3 °F 29.4 °F 30.34 in ENE 1.0 mph 1.0 mph 37% 0.00 in 113 W/m2
18:48 54.7 °F 28.9 °F 30.34 in ENE 2.0 mph 4.0 mph 37% 0.00 in 54 W/m2
18:54 54.2 °F 28.5 °F 30.34 in ENE 3.0 mph 3.0 mph 37% 0.00 in 100 W/m2
19:00 54.2 °F 29.1 °F 30.33 in ENE 2.0 mph 2.0 mph 38% 0.00 in 69 W/m2
19:06 53.7 °F 28.0 °F 30.33 in ENE 2.0 mph 5.0 mph 37% 0.00 in 46 W/m2
19:12 53.5 °F 29.1 °F 30.33 in ENE 3.0 mph 3.0 mph 39% 0.00 in 26 W/m2
19:18 53.2 °F 28.9 °F 30.33 in ENE 2.0 mph 3.0 mph 39% 0.00 in 21 W/m2
19:24 52.9 °F 28.0 °F 30.33 in ENE 1.0 mph 1.0 mph 38% 0.00 in 19 W/m2
19:30 52.8 °F 28.5 °F 30.33 in ENE 1.0 mph 1.0 mph 39% 0.00 in 14 W/m2
19:36 52.5 °F 28.8 °F 30.33 in ENE 1.0 mph 1.0 mph 40% 0.00 in 11 W/m2
19:42 51.9 °F 28.9 °F 30.33 in Calm   1.0 mph 41% 0.00 in 7 W/m2
19:48 51.1 °F 30.5 °F 30.32 in Calm   1.0 mph 45% 0.00 in 0 W/m2
19:54 50.5 °F 28.8 °F 30.32 in Calm   2.0 mph 43% 0.00 in 0 W/m2
20:00 50.1 °F 29.6 °F 30.32 in Calm     45% 0.00 in 0 W/m2
20:06 49.7 °F 29.7 °F 30.32 in Calm     46% 0.00 in 0 W/m2
20:12 49.4 °F 32.0 °F 30.31 in Calm   1.0 mph 51% 0.00 in 0 W/m2
20:18 49.0 °F 35.7 °F 30.31 in Calm   1.0 mph 60% 0.00 in 0 W/m2
20:24 48.3 °F 34.2 °F 30.31 in Calm     58% 0.00 in 0 W/m2
20:30 47.7 °F 31.9 °F 30.31 in Calm     54% 0.00 in 0 W/m2
20:36 47.2 °F 32.7 °F 30.31 in Calm     57% 0.00 in 0 W/m2
20:42 46.9 °F 33.7 °F 30.31 in Calm     60% 0.00 in 0 W/m2
20:50 46.2 °F 33.9 °F 30.31 in Calm     62% 0.00 in 0 W/m2
20:56 45.8 °F 33.5 °F 30.31 in Calm     62% 0.00 in 0 W/m2
21:02 45.4 °F 34.3 °F 30.31 in Calm     65% 0.00 in 0 W/m2
21:08 45.2 °F 34.5 °F 30.31 in Calm     66% 0.00 in 0 W/m2
21:14 44.8 °F 34.5 °F 30.31 in Calm     67% 0.00 in 0 W/m2
21:20 44.4 °F 34.1 °F 30.31 in Calm     67% 0.00 in 0 W/m2
21:26 44.0 °F 32.6 °F 30.31 in Calm     64% 0.00 in 0 W/m2
21:32 43.8 °F 32.0 °F 30.31 in Calm     63% 0.00 in 0 W/m2
21:38 43.8 °F 33.6 °F 30.31 in Calm   1.0 mph 67% 0.00 in 0 W/m2
21:44 43.6 °F 31.8 °F 30.31 in Calm     63% 0.00 in 0 W/m2
21:50 43.5 °F 32.1 °F 30.31 in Calm     64% 0.00 in 0 W/m2
21:56 43.5 °F 32.5 °F 30.31 in Calm     65% 0.00 in 0 W/m2
22:02 43.6 °F 31.8 °F 30.31 in Calm     63% 0.00 in 0 W/m2
22:08 43.6 °F 31.8 °F 30.31 in Calm     63% 0.00 in 0 W/m2
22:14 43.6 °F 31.8 °F 30.31 in Calm     63% 0.00 in 0 W/m2
22:20 43.7 °F 31.1 °F 30.31 in Calm     61% 0.00 in 0 W/m2
22:26 43.8 °F 33.2 °F 30.31 in Calm     66% 0.00 in 0 W/m2
22:32 43.8 °F 33.2 °F 30.31 in Calm     66% 0.00 in 0 W/m2
22:38 43.4 °F 32.4 °F 30.31 in Calm     65% 0.00 in 0 W/m2
22:44 43.2 °F 32.6 °F 30.30 in Calm     66% 0.00 in 0 W/m2
22:50 43.1 °F 33.6 °F 30.31 in Calm     69% 0.00 in 0 W/m2
22:56 43.2 °F 34.4 °F 30.31 in Calm     71% 0.00 in 0 W/m2
23:02 43.0 °F 34.2 °F 30.30 in Calm     71% 0.00 in 0 W/m2
23:08 42.9 °F 33.8 °F 30.30 in Calm     70% 0.00 in 0 W/m2
23:14 42.9 °F 32.7 °F 30.29 in Calm     67% 0.00 in 0 W/m2
23:20 43.0 °F 33.9 °F 30.29 in Calm     70% 0.00 in 0 W/m2
23:26 43.0 °F 32.0 °F 30.29 in Calm     65% 0.00 in 0 W/m2
23:32 43.5 °F 30.9 °F 30.29 in Calm     61% 0.00 in 0 W/m2
23:38 44.1 °F 30.7 °F 30.28 in Calm   1.0 mph 59% 0.00 in 0 W/m2
23:44 44.7 °F 30.0 °F 30.28 in Calm   1.0 mph 56% 0.00 in 0 W/m2
23:50 45.2 °F 30.0 °F 30.29 in East 1.0 mph 1.0 mph 55% 0.00 in 0 W/m2
23:56 45.1 °F 30.3 °F 30.28 in Calm   1.0 mph 56% 0.00 in 0 W/m2
Country Meadow, Clay, NY, USA
Compliments of Weather Underground - 2 mb